sensor_id;sensor_type;location;lat;lon;timestamp;P1;durP1;ratioP1;P2;durP2;ratioP2
17614;SDS011;8926;49.720;6.576;2023-06-10T00:01:06;2.70;;;2.60;;
17614;SDS011;8926;49.720;6.576;2023-06-10T00:03:32;3.23;;;3.03;;
17614;SDS011;8926;49.720;6.576;2023-06-10T00:05:57;3.00;;;2.90;;
17614;SDS011;8926;49.720;6.576;2023-06-10T00:08:22;3.27;;;3.07;;
17614;SDS011;8926;49.720;6.576;2023-06-10T00:10:48;3.73;;;3.53;;
17614;SDS011;8926;49.720;6.576;2023-06-10T00:13:13;3.27;;;3.07;;
17614;SDS011;8926;49.720;6.576;2023-06-10T00:15:39;3.43;;;3.23;;
17614;SDS011;8926;49.720;6.576;2023-06-10T00:18:04;3.00;;;2.90;;
17614;SDS011;8926;49.720;6.576;2023-06-10T00:20:30;3.10;;;2.90;;
17614;SDS011;8926;49.720;6.576;2023-06-10T00:22:56;2.83;;;2.73;;
17614;SDS011;8926;49.720;6.576;2023-06-10T00:25:24;2.97;;;2.87;;
17614;SDS011;8926;49.720;6.576;2023-06-10T00:27:50;2.87;;;2.73;;
17614;SDS011;8926;49.720;6.576;2023-06-10T00:30:16;2.87;;;2.77;;
17614;SDS011;8926;49.720;6.576;2023-06-10T00:32:41;3.07;;;2.97;;
17614;SDS011;8926;49.720;6.576;2023-06-10T00:35:07;3.03;;;2.83;;
17614;SDS011;8926;49.720;6.576;2023-06-10T00:37:32;3.00;;;2.80;;
17614;SDS011;8926;49.720;6.576;2023-06-10T00:40:00;2.93;;;2.77;;
17614;SDS011;8926;49.720;6.576;2023-06-10T00:42:27;2.70;;;2.60;;
17614;SDS011;8926;49.720;6.576;2023-06-10T00:44:53;2.60;;;2.50;;
17614;SDS011;8926;49.720;6.576;2023-06-10T00:47:19;2.70;;;2.60;;
17614;SDS011;8926;49.720;6.576;2023-06-10T00:49:45;2.90;;;2.80;;
17614;SDS011;8926;49.720;6.576;2023-06-10T00:52:11;3.50;;;3.30;;
17614;SDS011;8926;49.720;6.576;2023-06-10T00:54:37;3.40;;;3.20;;
17614;SDS011;8926;49.720;6.576;2023-06-10T00:57:03;3.33;;;3.13;;
17614;SDS011;8926;49.720;6.576;2023-06-10T00:59:29;3.37;;;3.17;;
17614;SDS011;8926;49.720;6.576;2023-06-10T01:01:55;3.67;;;3.47;;
17614;SDS011;8926;49.720;6.576;2023-06-10T01:04:21;2.80;;;2.70;;
17614;SDS011;8926;49.720;6.576;2023-06-10T01:09:53;3.73;;;3.53;;
17614;SDS011;8926;49.720;6.576;2023-06-10T01:15:31;4.03;;;3.83;;
17614;SDS011;8926;49.720;6.576;2023-06-10T01:18:01;3.80;;;3.60;;
17614;SDS011;8926;49.720;6.576;2023-06-10T01:20:33;3.57;;;3.37;;
17614;SDS011;8926;49.720;6.576;2023-06-10T01:23:00;3.53;;;3.33;;
17614;SDS011;8926;49.720;6.576;2023-06-10T01:25:26;3.20;;;3.00;;
17614;SDS011;8926;49.720;6.576;2023-06-10T01:28:03;3.17;;;2.97;;
17614;SDS011;8926;49.720;6.576;2023-06-10T01:33:33;4.00;;;3.80;;
17614;SDS011;8926;49.720;6.576;2023-06-10T01:36:03;3.20;;;3.10;;
17614;SDS011;8926;49.720;6.576;2023-06-10T01:38:33;3.37;;;3.17;;
17614;SDS011;8926;49.720;6.576;2023-06-10T01:41:08;3.77;;;3.57;;
17614;SDS011;8926;49.720;6.576;2023-06-10T01:43:37;3.50;;;3.30;;
17614;SDS011;8926;49.720;6.576;2023-06-10T01:46:03;3.63;;;3.43;;
17614;SDS011;8926;49.720;6.576;2023-06-10T01:48:28;3.57;;;3.37;;
17614;SDS011;8926;49.720;6.576;2023-06-10T01:50:53;3.80;;;3.60;;
17614;SDS011;8926;49.720;6.576;2023-06-10T01:53:21;3.50;;;3.30;;
17614;SDS011;8926;49.720;6.576;2023-06-10T01:55:46;4.10;;;3.80;;
17614;SDS011;8926;49.720;6.576;2023-06-10T01:58:12;4.10;;;3.87;;
17614;SDS011;8926;49.720;6.576;2023-06-10T02:00:37;3.80;;;3.60;;
17614;SDS011;8926;49.720;6.576;2023-06-10T02:03:02;3.50;;;3.30;;
17614;SDS011;8926;49.720;6.576;2023-06-10T02:05:28;3.73;;;3.53;;
17614;SDS011;8926;49.720;6.576;2023-06-10T02:07:53;4.20;;;3.97;;
17614;SDS011;8926;49.720;6.576;2023-06-10T02:10:18;3.63;;;3.43;;
17614;SDS011;8926;49.720;6.576;2023-06-10T02:12:44;3.43;;;3.23;;
17614;SDS011;8926;49.720;6.576;2023-06-10T02:15:09;4.07;;;3.87;;
17614;SDS011;8926;49.720;6.576;2023-06-10T02:17:35;3.90;;;3.70;;
17614;SDS011;8926;49.720;6.576;2023-06-10T02:20:00;3.83;;;3.63;;
17614;SDS011;8926;49.720;6.576;2023-06-10T02:22:29;6.00;;;5.53;;
17614;SDS011;8926;49.720;6.576;2023-06-10T02:24:54;4.40;;;4.20;;
17614;SDS011;8926;49.720;6.576;2023-06-10T02:27:20;4.30;;;4.10;;
17614;SDS011;8926;49.720;6.576;2023-06-10T02:29:46;4.13;;;3.90;;
17614;SDS011;8926;49.720;6.576;2023-06-10T02:32:11;5.20;;;4.90;;
17614;SDS011;8926;49.720;6.576;2023-06-10T02:34:36;4.30;;;4.10;;
17614;SDS011;8926;49.720;6.576;2023-06-10T02:37:02;4.27;;;4.07;;
17614;SDS011;8926;49.720;6.576;2023-06-10T02:39:27;4.20;;;3.90;;
17614;SDS011;8926;49.720;6.576;2023-06-10T02:41:53;3.57;;;3.37;;
17614;SDS011;8926;49.720;6.576;2023-06-10T02:44:18;3.57;;;3.37;;
17614;SDS011;8926;49.720;6.576;2023-06-10T02:46:44;3.80;;;3.60;;
17614;SDS011;8926;49.720;6.576;2023-06-10T02:49:09;3.87;;;3.67;;
17614;SDS011;8926;49.720;6.576;2023-06-10T02:51:35;3.93;;;3.73;;
17614;SDS011;8926;49.720;6.576;2023-06-10T02:54:00;3.63;;;3.43;;
17614;SDS011;8926;49.720;6.576;2023-06-10T02:56:26;3.60;;;3.40;;
17614;SDS011;8926;49.720;6.576;2023-06-10T02:58:52;3.60;;;3.40;;
17614;SDS011;8926;49.720;6.576;2023-06-10T03:01:17;3.50;;;3.30;;
17614;SDS011;8926;49.720;6.576;2023-06-10T03:03:43;4.37;;;4.07;;
17614;SDS011;8926;49.720;6.576;2023-06-10T03:06:13;4.10;;;3.80;;
17614;SDS011;8926;49.720;6.576;2023-06-10T03:08:39;3.60;;;3.40;;
17614;SDS011;8926;49.720;6.576;2023-06-10T03:11:05;4.37;;;4.07;;
17614;SDS011;8926;49.720;6.576;2023-06-10T03:13:30;4.00;;;3.80;;
17614;SDS011;8926;49.720;6.576;2023-06-10T03:15:56;4.50;;;4.20;;
17614;SDS011;8926;49.720;6.576;2023-06-10T03:18:21;4.73;;;4.43;;
17614;SDS011;8926;49.720;6.576;2023-06-10T03:20:48;4.67;;;4.43;;
17614;SDS011;8926;49.720;6.576;2023-06-10T03:23:13;4.10;;;3.90;;
17614;SDS011;8926;49.720;6.576;2023-06-10T03:25:38;3.90;;;3.70;;
17614;SDS011;8926;49.720;6.576;2023-06-10T03:28:04;4.03;;;3.83;;
17614;SDS011;8926;49.720;6.576;2023-06-10T03:30:29;3.73;;;3.53;;
17614;SDS011;8926;49.720;6.576;2023-06-10T03:32:54;4.07;;;3.80;;
17614;SDS011;8926;49.720;6.576;2023-06-10T03:35:19;4.20;;;4.00;;
17614;SDS011;8926;49.720;6.576;2023-06-10T03:37:45;4.30;;;4.00;;
17614;SDS011;8926;49.720;6.576;2023-06-10T03:40:11;4.43;;;4.20;;
17614;SDS011;8926;49.720;6.576;2023-06-10T03:42:36;4.60;;;4.40;;
17614;SDS011;8926;49.720;6.576;2023-06-10T03:45:02;4.20;;;4.00;;
17614;SDS011;8926;49.720;6.576;2023-06-10T03:47:32;4.00;;;3.80;;
17614;SDS011;8926;49.720;6.576;2023-06-10T03:49:59;4.60;;;4.40;;
17614;SDS011;8926;49.720;6.576;2023-06-10T03:52:25;4.33;;;4.13;;
17614;SDS011;8926;49.720;6.576;2023-06-10T03:54:50;4.07;;;3.77;;
17614;SDS011;8926;49.720;6.576;2023-06-10T03:57:15;3.70;;;3.50;;
17614;SDS011;8926;49.720;6.576;2023-06-10T03:59:41;3.63;;;3.43;;
17614;SDS011;8926;49.720;6.576;2023-06-10T04:02:06;4.07;;;3.77;;
17614;SDS011;8926;49.720;6.576;2023-06-10T04:04:33;4.40;;;4.00;;
17614;SDS011;8926;49.720;6.576;2023-06-10T04:06:58;4.00;;;3.80;;
17614;SDS011;8926;49.720;6.576;2023-06-10T04:09:23;4.07;;;3.87;;
17614;SDS011;8926;49.720;6.576;2023-06-10T04:11:49;3.80;;;3.60;;
17614;SDS011;8926;49.720;6.576;2023-06-10T04:14:14;3.50;;;3.30;;
17614;SDS011;8926;49.720;6.576;2023-06-10T04:16:40;3.70;;;3.50;;
17614;SDS011;8926;49.720;6.576;2023-06-10T04:19:07;4.10;;;3.90;;
17614;SDS011;8926;49.720;6.576;2023-06-10T04:21:32;3.93;;;3.73;;
17614;SDS011;8926;49.720;6.576;2023-06-10T04:23:57;3.60;;;3.40;;
17614;SDS011;8926;49.720;6.576;2023-06-10T04:26:23;4.47;;;4.17;;
17614;SDS011;8926;49.720;6.576;2023-06-10T04:28:48;4.10;;;3.70;;
17614;SDS011;8926;49.720;6.576;2023-06-10T04:31:14;4.20;;;3.90;;
17614;SDS011;8926;49.720;6.576;2023-06-10T04:33:39;4.50;;;4.13;;
17614;SDS011;8926;49.720;6.576;2023-06-10T04:36:05;4.50;;;4.20;;
17614;SDS011;8926;49.720;6.576;2023-06-10T04:38:31;4.20;;;4.00;;
17614;SDS011;8926;49.720;6.576;2023-06-10T04:40:57;4.60;;;4.30;;
17614;SDS011;8926;49.720;6.576;2023-06-10T04:43:22;4.67;;;4.47;;
17614;SDS011;8926;49.720;6.576;2023-06-10T04:45:47;5.10;;;4.80;;
17614;SDS011;8926;49.720;6.576;2023-06-10T04:48:13;4.70;;;4.43;;
17614;SDS011;8926;49.720;6.576;2023-06-10T04:50:38;4.80;;;4.40;;
17614;SDS011;8926;49.720;6.576;2023-06-10T04:53:04;4.13;;;3.93;;
17614;SDS011;8926;49.720;6.576;2023-06-10T04:55:30;4.23;;;4.03;;
17614;SDS011;8926;49.720;6.576;2023-06-10T04:57:56;3.90;;;3.70;;
17614;SDS011;8926;49.720;6.576;2023-06-10T05:00:22;3.73;;;3.53;;
17614;SDS011;8926;49.720;6.576;2023-06-10T05:02:47;3.43;;;3.23;;
17614;SDS011;8926;49.720;6.576;2023-06-10T05:05:17;3.50;;;3.30;;
17614;SDS011;8926;49.720;6.576;2023-06-10T05:07:42;3.90;;;3.70;;
17614;SDS011;8926;49.720;6.576;2023-06-10T05:10:08;5.70;;;5.40;;
17614;SDS011;8926;49.720;6.576;2023-06-10T05:12:33;4.80;;;4.50;;
17614;SDS011;8926;49.720;6.576;2023-06-10T05:14:59;4.10;;;3.90;;
17614;SDS011;8926;49.720;6.576;2023-06-10T05:17:24;4.07;;;3.87;;
17614;SDS011;8926;49.720;6.576;2023-06-10T05:19:50;4.60;;;4.30;;
17614;SDS011;8926;49.720;6.576;2023-06-10T05:22:15;3.97;;;3.77;;
17614;SDS011;8926;49.720;6.576;2023-06-10T05:24:42;3.70;;;3.50;;
17614;SDS011;8926;49.720;6.576;2023-06-10T05:27:09;3.73;;;3.53;;
17614;SDS011;8926;49.720;6.576;2023-06-10T05:29:34;3.43;;;3.23;;
17614;SDS011;8926;49.720;6.576;2023-06-10T05:32:00;3.97;;;3.77;;
17614;SDS011;8926;49.720;6.576;2023-06-10T05:34:28;3.50;;;3.30;;
17614;SDS011;8926;49.720;6.576;2023-06-10T05:36:56;4.30;;;4.10;;
17614;SDS011;8926;49.720;6.576;2023-06-10T05:39:21;4.93;;;4.57;;
17614;SDS011;8926;49.720;6.576;2023-06-10T05:41:46;4.87;;;4.57;;
17614;SDS011;8926;49.720;6.576;2023-06-10T05:44:11;5.13;;;4.83;;
17614;SDS011;8926;49.720;6.576;2023-06-10T05:46:37;4.70;;;4.40;;
17614;SDS011;8926;49.720;6.576;2023-06-10T05:49:02;4.70;;;4.30;;
17614;SDS011;8926;49.720;6.576;2023-06-10T05:51:28;4.67;;;4.47;;
17614;SDS011;8926;49.720;6.576;2023-06-10T05:53:53;4.83;;;4.53;;
17614;SDS011;8926;49.720;6.576;2023-06-10T05:56:19;5.57;;;5.17;;
17614;SDS011;8926;49.720;6.576;2023-06-10T05:58:47;4.83;;;4.53;;
17614;SDS011;8926;49.720;6.576;2023-06-10T06:01:12;4.37;;;4.07;;
17614;SDS011;8926;49.720;6.576;2023-06-10T06:03:38;5.30;;;5.00;;
17614;SDS011;8926;49.720;6.576;2023-06-10T06:06:03;5.20;;;4.90;;
17614;SDS011;8926;49.720;6.576;2023-06-10T06:08:29;4.50;;;4.20;;
17614;SDS011;8926;49.720;6.576;2023-06-10T06:10:54;5.30;;;5.00;;
17614;SDS011;8926;49.720;6.576;2023-06-10T06:13:20;5.10;;;4.80;;
17614;SDS011;8926;49.720;6.576;2023-06-10T06:15:45;4.73;;;4.43;;
17614;SDS011;8926;49.720;6.576;2023-06-10T06:18:10;5.07;;;4.67;;
17614;SDS011;8926;49.720;6.576;2023-06-10T06:20:36;4.50;;;4.23;;
17614;SDS011;8926;49.720;6.576;2023-06-10T06:23:01;4.93;;;4.70;;
17614;SDS011;8926;49.720;6.576;2023-06-10T06:25:26;4.57;;;4.27;;
17614;SDS011;8926;49.720;6.576;2023-06-10T06:27:51;4.47;;;4.20;;
17614;SDS011;8926;49.720;6.576;2023-06-10T06:30:17;4.67;;;4.47;;
17614;SDS011;8926;49.720;6.576;2023-06-10T06:32:42;4.03;;;3.83;;
17614;SDS011;8926;49.720;6.576;2023-06-10T06:35:07;5.00;;;4.70;;
17614;SDS011;8926;49.720;6.576;2023-06-10T06:37:33;4.50;;;4.17;;
17614;SDS011;8926;49.720;6.576;2023-06-10T06:39:59;4.40;;;4.10;;
17614;SDS011;8926;49.720;6.576;2023-06-10T06:42:25;3.93;;;3.73;;
17614;SDS011;8926;49.720;6.576;2023-06-10T06:44:50;4.60;;;4.30;;
17614;SDS011;8926;49.720;6.576;2023-06-10T06:47:15;4.40;;;4.10;;
17614;SDS011;8926;49.720;6.576;2023-06-10T06:49:44;4.43;;;4.13;;
17614;SDS011;8926;49.720;6.576;2023-06-10T06:52:10;3.90;;;3.70;;
17614;SDS011;8926;49.720;6.576;2023-06-10T06:54:36;4.17;;;3.80;;
17614;SDS011;8926;49.720;6.576;2023-06-10T06:57:01;4.43;;;4.20;;
17614;SDS011;8926;49.720;6.576;2023-06-10T06:59:27;4.23;;;4.03;;
17614;SDS011;8926;49.720;6.576;2023-06-10T07:01:52;3.93;;;3.73;;
17614;SDS011;8926;49.720;6.576;2023-06-10T07:04:19;4.50;;;4.27;;
17614;SDS011;8926;49.720;6.576;2023-06-10T07:06:46;3.70;;;3.50;;
17614;SDS011;8926;49.720;6.576;2023-06-10T07:09:12;3.10;;;3.00;;
17614;SDS011;8926;49.720;6.576;2023-06-10T07:11:37;4.53;;;4.23;;
17614;SDS011;8926;49.720;6.576;2023-06-10T07:14:02;4.30;;;3.90;;
17614;SDS011;8926;49.720;6.576;2023-06-10T07:16:28;4.77;;;4.47;;
17614;SDS011;8926;49.720;6.576;2023-06-10T07:18:53;5.07;;;4.77;;
17614;SDS011;8926;49.720;6.576;2023-06-10T07:21:19;4.73;;;4.50;;
17614;SDS011;8926;49.720;6.576;2023-06-10T07:23:44;5.13;;;4.83;;
17614;SDS011;8926;49.720;6.576;2023-06-10T07:26:10;4.97;;;4.57;;
17614;SDS011;8926;49.720;6.576;2023-06-10T07:28:38;4.50;;;4.20;;
17614;SDS011;8926;49.720;6.576;2023-06-10T07:31:03;4.70;;;4.40;;
17614;SDS011;8926;49.720;6.576;2023-06-10T07:33:29;5.07;;;4.70;;
17614;SDS011;8926;49.720;6.576;2023-06-10T07:35:54;3.80;;;3.60;;
17614;SDS011;8926;49.720;6.576;2023-06-10T07:38:20;3.80;;;3.50;;
17614;SDS011;8926;49.720;6.576;2023-06-10T07:40:45;4.27;;;4.07;;
17614;SDS011;8926;49.720;6.576;2023-06-10T07:43:11;4.47;;;4.13;;
17614;SDS011;8926;49.720;6.576;2023-06-10T07:45:36;3.87;;;3.67;;
17614;SDS011;8926;49.720;6.576;2023-06-10T07:48:01;4.17;;;3.97;;
17614;SDS011;8926;49.720;6.576;2023-06-10T07:50:27;5.13;;;4.73;;
17614;SDS011;8926;49.720;6.576;2023-06-10T07:52:52;3.90;;;3.70;;
17614;SDS011;8926;49.720;6.576;2023-06-10T07:55:17;4.27;;;4.03;;
17614;SDS011;8926;49.720;6.576;2023-06-10T07:57:43;4.23;;;3.93;;
17614;SDS011;8926;49.720;6.576;2023-06-10T08:00:08;3.87;;;3.67;;
17614;SDS011;8926;49.720;6.576;2023-06-10T08:02:34;4.30;;;4.00;;
17614;SDS011;8926;49.720;6.576;2023-06-10T08:04:59;4.77;;;4.37;;
17614;SDS011;8926;49.720;6.576;2023-06-10T08:07:24;4.80;;;4.50;;
17614;SDS011;8926;49.720;6.576;2023-06-10T08:09:50;4.20;;;4.00;;
17614;SDS011;8926;49.720;6.576;2023-06-10T08:12:15;3.47;;;3.27;;
17614;SDS011;8926;49.720;6.576;2023-06-10T08:14:41;3.57;;;3.37;;
17614;SDS011;8926;49.720;6.576;2023-06-10T08:17:06;4.00;;;3.80;;
17614;SDS011;8926;49.720;6.576;2023-06-10T08:19:32;4.23;;;3.93;;
17614;SDS011;8926;49.720;6.576;2023-06-10T08:21:57;3.83;;;3.50;;
17614;SDS011;8926;49.720;6.576;2023-06-10T08:24:22;3.67;;;3.47;;
17614;SDS011;8926;49.720;6.576;2023-06-10T08:26:48;3.87;;;3.57;;
17614;SDS011;8926;49.720;6.576;2023-06-10T08:29:13;4.00;;;3.80;;
17614;SDS011;8926;49.720;6.576;2023-06-10T08:31:42;3.70;;;3.50;;
17614;SDS011;8926;49.720;6.576;2023-06-10T08:34:08;3.63;;;3.43;;
17614;SDS011;8926;49.720;6.576;2023-06-10T08:36:34;3.13;;;2.93;;
17614;SDS011;8926;49.720;6.576;2023-06-10T08:39:00;2.80;;;2.70;;
17614;SDS011;8926;49.720;6.576;2023-06-10T08:41:26;3.13;;;3.03;;
17614;SDS011;8926;49.720;6.576;2023-06-10T08:46:52;2.43;;;2.33;;
17614;SDS011;8926;49.720;6.576;2023-06-10T08:49:19;2.80;;;2.60;;
17614;SDS011;8926;49.720;6.576;2023-06-10T08:51:49;3.53;;;3.33;;
17614;SDS011;8926;49.720;6.576;2023-06-10T08:54:17;3.63;;;3.43;;
17614;SDS011;8926;49.720;6.576;2023-06-10T08:56:45;3.40;;;3.20;;
17614;SDS011;8926;49.720;6.576;2023-06-10T08:59:16;3.40;;;3.20;;
17614;SDS011;8926;49.720;6.576;2023-06-10T09:01:42;3.50;;;3.30;;
17614;SDS011;8926;49.720;6.576;2023-06-10T09:04:08;2.90;;;2.80;;
17614;SDS011;8926;49.720;6.576;2023-06-10T09:06:33;3.17;;;3.00;;
17614;SDS011;8926;49.720;6.576;2023-06-10T09:09:00;2.93;;;2.73;;
17614;SDS011;8926;49.720;6.576;2023-06-10T09:11:26;2.67;;;2.47;;
17614;SDS011;8926;49.720;6.576;2023-06-10T09:13:52;3.93;;;3.73;;
17614;SDS011;8926;49.720;6.576;2023-06-10T09:16:17;3.53;;;3.33;;
17614;SDS011;8926;49.720;6.576;2023-06-10T09:18:43;3.30;;;3.10;;
17614;SDS011;8926;49.720;6.576;2023-06-10T09:21:08;3.00;;;2.80;;
17614;SDS011;8926;49.720;6.576;2023-06-10T09:23:34;3.57;;;3.37;;
17614;SDS011;8926;49.720;6.576;2023-06-10T09:26:01;3.23;;;3.03;;
17614;SDS011;8926;49.720;6.576;2023-06-10T09:28:28;3.50;;;3.30;;
17614;SDS011;8926;49.720;6.576;2023-06-10T09:31:03;3.20;;;3.00;;
17614;SDS011;8926;49.720;6.576;2023-06-10T09:33:30;2.77;;;2.67;;
17614;SDS011;8926;49.720;6.576;2023-06-10T09:35:55;3.73;;;3.53;;
17614;SDS011;8926;49.720;6.576;2023-06-10T09:38:28;3.10;;;3.00;;
17614;SDS011;8926;49.720;6.576;2023-06-10T09:40:55;3.47;;;3.27;;
17614;SDS011;8926;49.720;6.576;2023-06-10T09:43:21;3.50;;;3.30;;
17614;SDS011;8926;49.720;6.576;2023-06-10T09:45:52;3.30;;;3.10;;
17614;SDS011;8926;49.720;6.576;2023-06-10T09:48:22;3.40;;;3.20;;
17614;SDS011;8926;49.720;6.576;2023-06-10T09:50:48;3.70;;;3.50;;
17614;SDS011;8926;49.720;6.576;2023-06-10T09:53:14;3.40;;;3.20;;
17614;SDS011;8926;49.720;6.576;2023-06-10T09:55:42;7.73;;;4.47;;
17614;SDS011;8926;49.720;6.576;2023-06-10T09:58:09;3.00;;;2.80;;
17614;SDS011;8926;49.720;6.576;2023-06-10T10:00:34;2.20;;;2.10;;
17614;SDS011;8926;49.720;6.576;2023-06-10T10:03:00;2.83;;;2.63;;
17614;SDS011;8926;49.720;6.576;2023-06-10T10:05:25;3.47;;;3.27;;
17614;SDS011;8926;49.720;6.576;2023-06-10T10:07:52;3.20;;;2.80;;
17614;SDS011;8926;49.720;6.576;2023-06-10T10:10:18;2.80;;;2.60;;
17614;SDS011;8926;49.720;6.576;2023-06-10T10:12:47;2.73;;;2.63;;
17614;SDS011;8926;49.720;6.576;2023-06-10T10:15:16;2.87;;;2.70;;
17614;SDS011;8926;49.720;6.576;2023-06-10T10:17:44;2.93;;;2.73;;
17614;SDS011;8926;49.720;6.576;2023-06-10T10:20:14;2.83;;;2.73;;
17614;SDS011;8926;49.720;6.576;2023-06-10T10:22:45;2.60;;;2.50;;
17614;SDS011;8926;49.720;6.576;2023-06-10T10:25:23;2.70;;;2.60;;
17614;SDS011;8926;49.720;6.576;2023-06-10T10:27:57;2.90;;;2.80;;
17614;SDS011;8926;49.720;6.576;2023-06-10T10:30:28;2.93;;;2.73;;
17614;SDS011;8926;49.720;6.576;2023-06-10T10:33:00;4.33;;;3.37;;
17614;SDS011;8926;49.720;6.576;2023-06-10T10:35:30;2.80;;;2.60;;
17614;SDS011;8926;49.720;6.576;2023-06-10T10:37:55;2.50;;;2.30;;
17614;SDS011;8926;49.720;6.576;2023-06-10T10:40:21;2.87;;;2.67;;
17614;SDS011;8926;49.720;6.576;2023-06-10T10:42:48;2.70;;;2.60;;
17614;SDS011;8926;49.720;6.576;2023-06-10T10:45:15;2.93;;;2.73;;
17614;SDS011;8926;49.720;6.576;2023-06-10T10:47:40;2.80;;;2.70;;
17614;SDS011;8926;49.720;6.576;2023-06-10T10:50:17;2.60;;;2.40;;
17614;SDS011;8926;49.720;6.576;2023-06-10T10:52:58;2.73;;;2.53;;
17614;SDS011;8926;49.720;6.576;2023-06-10T10:55:25;2.60;;;2.50;;
17614;SDS011;8926;49.720;6.576;2023-06-10T10:57:58;3.53;;;3.33;;
17614;SDS011;8926;49.720;6.576;2023-06-10T11:00:31;2.87;;;2.77;;
17614;SDS011;8926;49.720;6.576;2023-06-10T11:02:59;2.60;;;2.50;;
17614;SDS011;8926;49.720;6.576;2023-06-10T11:05:32;2.47;;;2.37;;
17614;SDS011;8926;49.720;6.576;2023-06-10T11:08:02;2.40;;;2.30;;
17614;SDS011;8926;49.720;6.576;2023-06-10T11:10:28;2.30;;;2.20;;
17614;SDS011;8926;49.720;6.576;2023-06-10T11:12:58;2.63;;;2.50;;
17614;SDS011;8926;49.720;6.576;2023-06-10T11:18:10;2.60;;;2.50;;
17614;SDS011;8926;49.720;6.576;2023-06-10T11:28:38;2.43;;;2.33;;
17614;SDS011;8926;49.720;6.576;2023-06-10T11:31:06;2.20;;;2.10;;
17614;SDS011;8926;49.720;6.576;2023-06-10T11:33:31;2.80;;;2.60;;
17614;SDS011;8926;49.720;6.576;2023-06-10T11:35:57;2.63;;;2.40;;
17614;SDS011;8926;49.720;6.576;2023-06-10T11:38:25;2.20;;;2.00;;
17614;SDS011;8926;49.720;6.576;2023-06-10T11:40:51;2.47;;;2.37;;
17614;SDS011;8926;49.720;6.576;2023-06-10T11:43:17;2.90;;;2.70;;
17614;SDS011;8926;49.720;6.576;2023-06-10T11:45:43;2.20;;;2.10;;
17614;SDS011;8926;49.720;6.576;2023-06-10T11:48:09;2.80;;;2.60;;
17614;SDS011;8926;49.720;6.576;2023-06-10T11:50:35;2.60;;;2.50;;
17614;SDS011;8926;49.720;6.576;2023-06-10T11:53:01;2.27;;;2.17;;
17614;SDS011;8926;49.720;6.576;2023-06-10T11:55:43;2.00;;;1.90;;
17614;SDS011;8926;49.720;6.576;2023-06-10T11:58:16;2.27;;;2.17;;
17614;SDS011;8926;49.720;6.576;2023-06-10T12:00:49;2.10;;;2.00;;
17614;SDS011;8926;49.720;6.576;2023-06-10T12:03:18;1.60;;;1.50;;
17614;SDS011;8926;49.720;6.576;2023-06-10T12:05:57;1.60;;;1.50;;
17614;SDS011;8926;49.720;6.576;2023-06-10T12:08:24;2.30;;;1.97;;
17614;SDS011;8926;49.720;6.576;2023-06-10T12:10:50;2.80;;;2.70;;
17614;SDS011;8926;49.720;6.576;2023-06-10T12:13:16;2.40;;;2.30;;
17614;SDS011;8926;49.720;6.576;2023-06-10T12:15:43;2.00;;;1.90;;
17614;SDS011;8926;49.720;6.576;2023-06-10T12:18:15;2.87;;;2.40;;
17614;SDS011;8926;49.720;6.576;2023-06-10T12:20:42;2.10;;;2.00;;
17614;SDS011;8926;49.720;6.576;2023-06-10T12:23:11;1.97;;;1.87;;
17614;SDS011;8926;49.720;6.576;2023-06-10T12:25:37;2.50;;;2.30;;
17614;SDS011;8926;49.720;6.576;2023-06-10T12:28:03;2.10;;;2.00;;
17614;SDS011;8926;49.720;6.576;2023-06-10T12:30:31;1.97;;;1.87;;
17614;SDS011;8926;49.720;6.576;2023-06-10T12:32:57;2.00;;;1.90;;
17614;SDS011;8926;49.720;6.576;2023-06-10T12:35:23;1.93;;;1.83;;
17614;SDS011;8926;49.720;6.576;2023-06-10T12:40:31;2.20;;;2.10;;
17614;SDS011;8926;49.720;6.576;2023-06-10T12:43:01;2.00;;;1.90;;
17614;SDS011;8926;49.720;6.576;2023-06-10T12:45:37;1.97;;;1.87;;
17614;SDS011;8926;49.720;6.576;2023-06-10T12:48:10;2.03;;;1.93;;
17614;SDS011;8926;49.720;6.576;2023-06-10T12:50:40;3.10;;;2.87;;
17614;SDS011;8926;49.720;6.576;2023-06-10T12:53:07;2.67;;;2.50;;
17614;SDS011;8926;49.720;6.576;2023-06-10T12:55:33;2.60;;;2.33;;
17614;SDS011;8926;49.720;6.576;2023-06-10T12:58:00;2.27;;;2.17;;
17614;SDS011;8926;49.720;6.576;2023-06-10T13:00:26;2.47;;;2.37;;
17614;SDS011;8926;49.720;6.576;2023-06-10T13:02:54;2.00;;;1.90;;
17614;SDS011;8926;49.720;6.576;2023-06-10T13:05:20;1.50;;;1.40;;
17614;SDS011;8926;49.720;6.576;2023-06-10T13:07:46;2.33;;;2.10;;
17614;SDS011;8926;49.720;6.576;2023-06-10T13:10:15;1.90;;;1.80;;
17614;SDS011;8926;49.720;6.576;2023-06-10T13:12:44;3.90;;;2.40;;
17614;SDS011;8926;49.720;6.576;2023-06-10T13:15:10;2.37;;;2.27;;
17614;SDS011;8926;49.720;6.576;2023-06-10T13:17:36;2.67;;;2.47;;
17614;SDS011;8926;49.720;6.576;2023-06-10T13:20:05;2.60;;;2.40;;
17614;SDS011;8926;49.720;6.576;2023-06-10T13:22:31;2.50;;;2.40;;
17614;SDS011;8926;49.720;6.576;2023-06-10T13:25:01;2.70;;;2.50;;
17614;SDS011;8926;49.720;6.576;2023-06-10T13:27:28;3.10;;;2.90;;
17614;SDS011;8926;49.720;6.576;2023-06-10T13:29:53;3.33;;;3.03;;
17614;SDS011;8926;49.720;6.576;2023-06-10T13:32:18;3.40;;;3.20;;
17614;SDS011;8926;49.720;6.576;2023-06-10T13:34:44;3.63;;;3.43;;
17614;SDS011;8926;49.720;6.576;2023-06-10T13:37:10;3.43;;;3.23;;
17614;SDS011;8926;49.720;6.576;2023-06-10T13:39:37;2.50;;;2.30;;
17614;SDS011;8926;49.720;6.576;2023-06-10T13:42:03;2.50;;;2.40;;
17614;SDS011;8926;49.720;6.576;2023-06-10T13:44:28;3.60;;;3.30;;
17614;SDS011;8926;49.720;6.576;2023-06-10T13:46:55;2.83;;;2.63;;
17614;SDS011;8926;49.720;6.576;2023-06-10T13:49:21;2.43;;;2.27;;
17614;SDS011;8926;49.720;6.576;2023-06-10T13:51:46;3.83;;;2.07;;
17614;SDS011;8926;49.720;6.576;2023-06-10T13:54:12;3.30;;;3.10;;
17614;SDS011;8926;49.720;6.576;2023-06-10T13:56:39;2.83;;;2.67;;
17614;SDS011;8926;49.720;6.576;2023-06-10T13:59:04;2.73;;;2.60;;
17614;SDS011;8926;49.720;6.576;2023-06-10T14:01:30;3.40;;;3.20;;
17614;SDS011;8926;49.720;6.576;2023-06-10T14:03:55;2.80;;;2.70;;
17614;SDS011;8926;49.720;6.576;2023-06-10T14:06:21;2.50;;;2.40;;
17614;SDS011;8926;49.720;6.576;2023-06-10T14:08:47;2.53;;;2.43;;
17614;SDS011;8926;49.720;6.576;2023-06-10T14:11:12;2.77;;;2.67;;
17614;SDS011;8926;49.720;6.576;2023-06-10T14:13:38;4.10;;;3.50;;
17614;SDS011;8926;49.720;6.576;2023-06-10T14:16:04;3.20;;;3.00;;
17614;SDS011;8926;49.720;6.576;2023-06-10T14:18:29;2.40;;;2.20;;
17614;SDS011;8926;49.720;6.576;2023-06-10T14:20:55;2.57;;;2.47;;
17614;SDS011;8926;49.720;6.576;2023-06-10T14:23:20;2.87;;;2.67;;
17614;SDS011;8926;49.720;6.576;2023-06-10T14:25:45;2.63;;;2.53;;
17614;SDS011;8926;49.720;6.576;2023-06-10T14:28:11;2.40;;;2.30;;
17614;SDS011;8926;49.720;6.576;2023-06-10T14:30:36;2.20;;;2.10;;
17614;SDS011;8926;49.720;6.576;2023-06-10T14:33:01;2.10;;;2.00;;
17614;SDS011;8926;49.720;6.576;2023-06-10T14:35:27;2.20;;;2.10;;
17614;SDS011;8926;49.720;6.576;2023-06-10T14:37:52;2.43;;;2.33;;
17614;SDS011;8926;49.720;6.576;2023-06-10T14:40:17;2.10;;;2.00;;
17614;SDS011;8926;49.720;6.576;2023-06-10T14:42:43;2.40;;;2.30;;
17614;SDS011;8926;49.720;6.576;2023-06-10T14:45:08;2.47;;;2.37;;
17614;SDS011;8926;49.720;6.576;2023-06-10T14:47:35;2.50;;;2.30;;
17614;SDS011;8926;49.720;6.576;2023-06-10T14:50:00;1.97;;;1.87;;
17614;SDS011;8926;49.720;6.576;2023-06-10T14:52:25;2.30;;;2.20;;
17614;SDS011;8926;49.720;6.576;2023-06-10T14:54:51;1.90;;;1.80;;
17614;SDS011;8926;49.720;6.576;2023-06-10T14:57:16;3.30;;;3.10;;
17614;SDS011;8926;49.720;6.576;2023-06-10T14:59:42;2.40;;;2.30;;
17614;SDS011;8926;49.720;6.576;2023-06-10T15:02:07;2.17;;;2.07;;
17614;SDS011;8926;49.720;6.576;2023-06-10T15:04:32;2.13;;;2.03;;
17614;SDS011;8926;49.720;6.576;2023-06-10T15:06:58;2.20;;;2.10;;
17614;SDS011;8926;49.720;6.576;2023-06-10T15:09:23;2.60;;;2.50;;
17614;SDS011;8926;49.720;6.576;2023-06-10T15:11:48;2.40;;;2.30;;
17614;SDS011;8926;49.720;6.576;2023-06-10T15:14:14;2.47;;;2.37;;
17614;SDS011;8926;49.720;6.576;2023-06-10T15:16:39;1.67;;;1.63;;
17614;SDS011;8926;49.720;6.576;2023-06-10T15:19:04;2.73;;;2.60;;
17614;SDS011;8926;49.720;6.576;2023-06-10T15:21:33;2.80;;;2.60;;